KSJX

Beaver Island Airport

Beaver Island, Michigan, USA
METAR KSJX 181455Z AUTO 25011G16KT 10SM BKN015 M01/M05 A2986 RMK AO2 T10131047
Observed Flight Rules
Jan-18 @ 14:55 UTC (35 minutes ago) Marginal Visual Flight Rules
Wind Visibility Clouds
250° at 11 knots
 Gusting to 16 knots
10 miles
  • Broken at 1,500' AGL
Temperatures Readings
Current -1°C / 30°F
Dewpoint -5°C / 23°F
Humidity 75%
Altimeter 29.86" Hg
Pressure 1011 hPa
Elevation 204
METAR KSJX 181455Z AUTO 25011G16KT 10SM BKN015 M01/M05 A2986 RMK AO2 T10131047
Observed Flight Rules
Jan-18 @ 14:55 UTC
(35 minutes ago)
MVFR
Wind Visibility
250° at 11 knots
 Gusting to 16 knots
10 miles
Clouds
  • Broken at 1,500' AGL
Temperature Dewpoint
-1°C / 30°F -5°C / 23°F
Humidity Altimeter Pressure
75% 29.86" Hg 1011 hPa